sensor_id;sensor_type;location;lat;lon;timestamp;P1;durP1;ratioP1;P2;durP2;ratioP2
26512;SDS011;14186;53.822;10.152;2024-01-25T00:01:40;30.70;;;4.13;;
26512;SDS011;14186;53.822;10.152;2024-01-25T00:06:40;27.38;;;3.80;;
26512;SDS011;14186;53.822;10.152;2024-01-25T00:11:41;24.80;;;3.92;;
26512;SDS011;14186;53.822;10.152;2024-01-25T00:16:43;33.33;;;4.68;;
26512;SDS011;14186;53.822;10.152;2024-01-25T00:21:44;31.88;;;4.40;;
26512;SDS011;14186;53.822;10.152;2024-01-25T00:26:44;21.23;;;3.17;;
26512;SDS011;14186;53.822;10.152;2024-01-25T00:31:45;27.67;;;4.35;;
26512;SDS011;14186;53.822;10.152;2024-01-25T00:36:46;22.17;;;4.53;;
26512;SDS011;14186;53.822;10.152;2024-01-25T00:41:46;42.53;;;4.07;;
26512;SDS011;14186;53.822;10.152;2024-01-25T00:46:52;27.77;;;3.80;;
26512;SDS011;14186;53.822;10.152;2024-01-25T00:51:55;26.17;;;5.30;;
26512;SDS011;14186;53.822;10.152;2024-01-25T00:56:58;17.80;;;3.00;;
26512;SDS011;14186;53.822;10.152;2024-01-25T01:02:00;26.65;;;3.80;;
26512;SDS011;14186;53.822;10.152;2024-01-25T01:07:01;26.70;;;3.53;;
26512;SDS011;14186;53.822;10.152;2024-01-25T01:12:02;18.40;;;3.35;;
26512;SDS011;14186;53.822;10.152;2024-01-25T01:17:04;25.15;;;4.03;;
26512;SDS011;14186;53.822;10.152;2024-01-25T01:22:04;19.95;;;3.00;;
26512;SDS011;14186;53.822;10.152;2024-01-25T01:27:05;27.85;;;3.50;;
26512;SDS011;14186;53.822;10.152;2024-01-25T01:32:06;21.60;;;3.33;;
26512;SDS011;14186;53.822;10.152;2024-01-25T01:37:06;19.75;;;3.47;;
26512;SDS011;14186;53.822;10.152;2024-01-25T01:42:07;23.90;;;3.47;;
26512;SDS011;14186;53.822;10.152;2024-01-25T01:47:08;23.98;;;3.03;;
26512;SDS011;14186;53.822;10.152;2024-01-25T01:52:08;22.42;;;4.10;;
26512;SDS011;14186;53.822;10.152;2024-01-25T01:57:09;25.42;;;3.22;;
26512;SDS011;14186;53.822;10.152;2024-01-25T02:02:10;26.90;;;3.47;;
26512;SDS011;14186;53.822;10.152;2024-01-25T02:07:10;15.82;;;3.40;;
26512;SDS011;14186;53.822;10.152;2024-01-25T02:12:11;19.73;;;2.33;;
26512;SDS011;14186;53.822;10.152;2024-01-25T02:17:16;19.05;;;2.58;;
26512;SDS011;14186;53.822;10.152;2024-01-25T02:22:18;21.75;;;2.83;;
26512;SDS011;14186;53.822;10.152;2024-01-25T02:27:19;21.42;;;2.63;;
26512;SDS011;14186;53.822;10.152;2024-01-25T02:32:20;22.58;;;3.35;;
26512;SDS011;14186;53.822;10.152;2024-01-25T02:37:21;19.17;;;3.00;;
26512;SDS011;14186;53.822;10.152;2024-01-25T02:42:21;26.13;;;3.05;;
26512;SDS011;14186;53.822;10.152;2024-01-25T02:47:22;19.23;;;3.00;;
26512;SDS011;14186;53.822;10.152;2024-01-25T02:52:23;23.52;;;3.15;;
26512;SDS011;14186;53.822;10.152;2024-01-25T02:57:23;14.65;;;2.00;;
26512;SDS011;14186;53.822;10.152;2024-01-25T03:02:24;10.18;;;1.98;;
26512;SDS011;14186;53.822;10.152;2024-01-25T03:07:25;13.77;;;2.03;;
26512;SDS011;14186;53.822;10.152;2024-01-25T03:12:26;20.73;;;3.13;;
26512;SDS011;14186;53.822;10.152;2024-01-25T03:17:26;19.30;;;2.45;;
26512;SDS011;14186;53.822;10.152;2024-01-25T03:22:27;16.88;;;2.28;;
26512;SDS011;14186;53.822;10.152;2024-01-25T03:27:27;24.23;;;3.33;;
26512;SDS011;14186;53.822;10.152;2024-01-25T03:32:28;19.45;;;2.80;;
26512;SDS011;14186;53.822;10.152;2024-01-25T03:37:29;17.13;;;2.10;;
26512;SDS011;14186;53.822;10.152;2024-01-25T03:42:29;30.15;;;2.50;;
26512;SDS011;14186;53.822;10.152;2024-01-25T03:47:30;15.55;;;2.42;;
26512;SDS011;14186;53.822;10.152;2024-01-25T03:52:31;18.35;;;2.45;;
26512;SDS011;14186;53.822;10.152;2024-01-25T03:57:31;22.02;;;3.75;;
26512;SDS011;14186;53.822;10.152;2024-01-25T04:02:32;15.02;;;2.35;;
26512;SDS011;14186;53.822;10.152;2024-01-25T04:07:33;19.40;;;2.80;;
26512;SDS011;14186;53.822;10.152;2024-01-25T04:12:33;20.23;;;3.17;;
26512;SDS011;14186;53.822;10.152;2024-01-25T04:17:34;13.30;;;1.75;;
26512;SDS011;14186;53.822;10.152;2024-01-25T04:22:36;18.77;;;2.53;;
26512;SDS011;14186;53.822;10.152;2024-01-25T04:27:36;11.75;;;1.67;;
26512;SDS011;14186;53.822;10.152;2024-01-25T04:32:37;12.70;;;1.83;;
26512;SDS011;14186;53.822;10.152;2024-01-25T04:37:38;22.30;;;2.88;;
26512;SDS011;14186;53.822;10.152;2024-01-25T04:42:38;14.45;;;2.33;;
26512;SDS011;14186;53.822;10.152;2024-01-25T04:47:39;29.15;;;3.75;;
26512;SDS011;14186;53.822;10.152;2024-01-25T04:52:40;22.10;;;2.60;;
26512;SDS011;14186;53.822;10.152;2024-01-25T04:57:40;20.42;;;2.67;;
26512;SDS011;14186;53.822;10.152;2024-01-25T05:02:41;16.58;;;2.53;;
26512;SDS011;14186;53.822;10.152;2024-01-25T05:07:42;16.40;;;2.72;;
26512;SDS011;14186;53.822;10.152;2024-01-25T05:12:42;17.88;;;2.25;;
26512;SDS011;14186;53.822;10.152;2024-01-25T05:17:43;12.15;;;2.28;;
26512;SDS011;14186;53.822;10.152;2024-01-25T05:22:44;24.27;;;2.40;;
26512;SDS011;14186;53.822;10.152;2024-01-25T05:27:44;17.90;;;3.10;;
26512;SDS011;14186;53.822;10.152;2024-01-25T05:32:44;18.80;;;2.28;;
26512;SDS011;14186;53.822;10.152;2024-01-25T05:37:46;17.08;;;2.50;;
26512;SDS011;14186;53.822;10.152;2024-01-25T05:42:46;21.98;;;3.13;;
26512;SDS011;14186;53.822;10.152;2024-01-25T05:47:47;24.77;;;2.70;;
26512;SDS011;14186;53.822;10.152;2024-01-25T05:52:48;18.70;;;2.67;;
26512;SDS011;14186;53.822;10.152;2024-01-25T05:57:48;19.80;;;2.35;;
26512;SDS011;14186;53.822;10.152;2024-01-25T06:02:49;17.58;;;2.63;;
26512;SDS011;14186;53.822;10.152;2024-01-25T06:07:50;15.30;;;1.83;;
26512;SDS011;14186;53.822;10.152;2024-01-25T06:12:50;23.10;;;2.42;;
26512;SDS011;14186;53.822;10.152;2024-01-25T06:17:50;12.65;;;1.92;;
26512;SDS011;14186;53.822;10.152;2024-01-25T06:22:52;23.23;;;2.45;;
26512;SDS011;14186;53.822;10.152;2024-01-25T06:27:52;23.35;;;2.33;;
26512;SDS011;14186;53.822;10.152;2024-01-25T06:32:52;13.55;;;2.13;;
26512;SDS011;14186;53.822;10.152;2024-01-25T06:37:54;13.50;;;1.70;;
26512;SDS011;14186;53.822;10.152;2024-01-25T06:42:54;9.65;;;1.98;;
26512;SDS011;14186;53.822;10.152;2024-01-25T06:47:54;8.82;;;2.05;;
26512;SDS011;14186;53.822;10.152;2024-01-25T06:52:56;9.75;;;1.42;;
26512;SDS011;14186;53.822;10.152;2024-01-25T06:57:56;19.38;;;1.90;;
26512;SDS011;14186;53.822;10.152;2024-01-25T07:02:56;14.55;;;2.28;;
26512;SDS011;14186;53.822;10.152;2024-01-25T07:07:58;14.70;;;2.00;;
26512;SDS011;14186;53.822;10.152;2024-01-25T07:12:58;20.35;;;2.15;;
26512;SDS011;14186;53.822;10.152;2024-01-25T07:17:58;17.30;;;2.38;;
26512;SDS011;14186;53.822;10.152;2024-01-25T07:23:00;14.50;;;2.25;;
26512;SDS011;14186;53.822;10.152;2024-01-25T07:28:00;16.33;;;1.90;;
26512;SDS011;14186;53.822;10.152;2024-01-25T07:33:00;12.88;;;2.42;;
26512;SDS011;14186;53.822;10.152;2024-01-25T07:38:02;19.92;;;2.47;;
26512;SDS011;14186;53.822;10.152;2024-01-25T07:43:02;12.20;;;2.00;;
26512;SDS011;14186;53.822;10.152;2024-01-25T07:48:02;18.90;;;2.70;;
26512;SDS011;14186;53.822;10.152;2024-01-25T07:53:04;17.17;;;2.55;;
26512;SDS011;14186;53.822;10.152;2024-01-25T07:58:04;16.35;;;2.38;;
26512;SDS011;14186;53.822;10.152;2024-01-25T08:03:05;24.13;;;3.03;;
26512;SDS011;14186;53.822;10.152;2024-01-25T08:08:06;18.15;;;2.13;;
26512;SDS011;14186;53.822;10.152;2024-01-25T08:13:06;11.15;;;2.33;;
26512;SDS011;14186;53.822;10.152;2024-01-25T08:18:07;16.20;;;2.35;;
26512;SDS011;14186;53.822;10.152;2024-01-25T08:23:08;19.65;;;2.42;;
26512;SDS011;14186;53.822;10.152;2024-01-25T08:28:08;11.82;;;1.55;;
26512;SDS011;14186;53.822;10.152;2024-01-25T08:33:09;17.15;;;3.30;;
26512;SDS011;14186;53.822;10.152;2024-01-25T08:38:10;18.85;;;2.50;;
26512;SDS011;14186;53.822;10.152;2024-01-25T08:43:10;12.88;;;2.47;;
26512;SDS011;14186;53.822;10.152;2024-01-25T08:48:10;15.13;;;2.35;;
26512;SDS011;14186;53.822;10.152;2024-01-25T08:53:12;23.98;;;3.20;;
26512;SDS011;14186;53.822;10.152;2024-01-25T08:58:12;16.05;;;2.33;;
26512;SDS011;14186;53.822;10.152;2024-01-25T09:03:13;28.27;;;3.70;;
26512;SDS011;14186;53.822;10.152;2024-01-25T09:08:15;18.27;;;2.22;;
26512;SDS011;14186;53.822;10.152;2024-01-25T09:13:15;15.38;;;2.97;;
26512;SDS011;14186;53.822;10.152;2024-01-25T09:18:15;18.45;;;2.10;;
26512;SDS011;14186;53.822;10.152;2024-01-25T09:23:17;16.52;;;2.60;;
26512;SDS011;14186;53.822;10.152;2024-01-25T09:28:17;16.85;;;2.80;;
26512;SDS011;14186;53.822;10.152;2024-01-25T09:33:17;14.40;;;1.73;;
26512;SDS011;14186;53.822;10.152;2024-01-25T09:38:19;9.60;;;1.80;;
26512;SDS011;14186;53.822;10.152;2024-01-25T09:43:19;15.93;;;2.15;;
26512;SDS011;14186;53.822;10.152;2024-01-25T09:48:19;17.20;;;3.20;;
26512;SDS011;14186;53.822;10.152;2024-01-25T09:53:22;19.35;;;2.72;;
26512;SDS011;14186;53.822;10.152;2024-01-25T09:58:22;17.73;;;2.75;;
26512;SDS011;14186;53.822;10.152;2024-01-25T10:03:23;17.90;;;2.20;;
26512;SDS011;14186;53.822;10.152;2024-01-25T10:08:25;20.92;;;2.22;;
26512;SDS011;14186;53.822;10.152;2024-01-25T10:13:25;17.02;;;2.65;;
26512;SDS011;14186;53.822;10.152;2024-01-25T10:18:25;16.98;;;2.17;;
26512;SDS011;14186;53.822;10.152;2024-01-25T10:23:27;22.63;;;3.83;;
26512;SDS011;14186;53.822;10.152;2024-01-25T10:28:28;12.65;;;2.33;;
26512;SDS011;14186;53.822;10.152;2024-01-25T10:33:28;23.27;;;2.58;;
26512;SDS011;14186;53.822;10.152;2024-01-25T10:38:31;21.98;;;2.78;;
26512;SDS011;14186;53.822;10.152;2024-01-25T10:43:31;10.82;;;1.75;;
26512;SDS011;14186;53.822;10.152;2024-01-25T10:48:31;13.85;;;2.08;;
26512;SDS011;14186;53.822;10.152;2024-01-25T10:53:33;13.30;;;2.40;;
26512;SDS011;14186;53.822;10.152;2024-01-25T10:58:34;15.23;;;2.10;;
26512;SDS011;14186;53.822;10.152;2024-01-25T11:03:34;19.02;;;2.60;;
26512;SDS011;14186;53.822;10.152;2024-01-25T11:08:36;20.80;;;4.05;;
26512;SDS011;14186;53.822;10.152;2024-01-25T11:13:38;16.38;;;2.15;;
26512;SDS011;14186;53.822;10.152;2024-01-25T11:18:47;10.48;;;1.73;;
26512;SDS011;14186;53.822;10.152;2024-01-25T11:23:48;13.05;;;2.17;;
26512;SDS011;14186;53.822;10.152;2024-01-25T11:28:49;11.00;;;1.88;;
26512;SDS011;14186;53.822;10.152;2024-01-25T11:33:49;16.25;;;2.67;;
26512;SDS011;14186;53.822;10.152;2024-01-25T11:38:51;19.00;;;2.53;;
26512;SDS011;14186;53.822;10.152;2024-01-25T11:43:52;16.88;;;2.95;;
26512;SDS011;14186;53.822;10.152;2024-01-25T11:48:52;17.33;;;3.42;;
26512;SDS011;14186;53.822;10.152;2024-01-25T11:53:53;18.23;;;2.70;;
26512;SDS011;14186;53.822;10.152;2024-01-25T11:58:54;16.58;;;2.05;;
26512;SDS011;14186;53.822;10.152;2024-01-25T12:03:54;19.88;;;2.58;;
26512;SDS011;14186;53.822;10.152;2024-01-25T12:08:56;20.77;;;2.30;;
26512;SDS011;14186;53.822;10.152;2024-01-25T12:14:05;13.30;;;2.42;;
26512;SDS011;14186;53.822;10.152;2024-01-25T12:19:07;14.95;;;2.78;;
26512;SDS011;14186;53.822;10.152;2024-01-25T12:24:08;12.95;;;2.22;;
26512;SDS011;14186;53.822;10.152;2024-01-25T12:29:09;19.17;;;2.17;;
26512;SDS011;14186;53.822;10.152;2024-01-25T12:34:12;7.85;;;1.92;;
26512;SDS011;14186;53.822;10.152;2024-01-25T12:39:14;13.18;;;2.78;;
26512;SDS011;14186;53.822;10.152;2024-01-25T12:44:14;11.68;;;1.95;;
26512;SDS011;14186;53.822;10.152;2024-01-25T12:49:15;13.32;;;2.58;;
26512;SDS011;14186;53.822;10.152;2024-01-25T12:54:16;14.65;;;2.13;;
26512;SDS011;14186;53.822;10.152;2024-01-25T12:59:16;17.80;;;2.05;;
26512;SDS011;14186;53.822;10.152;2024-01-25T13:04:17;16.95;;;1.88;;
26512;SDS011;14186;53.822;10.152;2024-01-25T13:09:18;9.77;;;1.48;;
26512;SDS011;14186;53.822;10.152;2024-01-25T13:14:19;19.77;;;2.90;;
26512;SDS011;14186;53.822;10.152;2024-01-25T13:19:19;11.65;;;2.40;;
26512;SDS011;14186;53.822;10.152;2024-01-25T13:24:20;18.27;;;2.55;;
26512;SDS011;14186;53.822;10.152;2024-01-25T13:29:20;12.65;;;2.20;;
26512;SDS011;14186;53.822;10.152;2024-01-25T13:34:21;14.75;;;2.00;;
26512;SDS011;14186;53.822;10.152;2024-01-25T13:39:22;18.10;;;2.13;;
26512;SDS011;14186;53.822;10.152;2024-01-25T13:44:22;22.02;;;1.90;;
26512;SDS011;14186;53.822;10.152;2024-01-25T13:49:23;24.33;;;2.58;;
26512;SDS011;14186;53.822;10.152;2024-01-25T13:54:24;18.13;;;2.63;;
26512;SDS011;14186;53.822;10.152;2024-01-25T13:59:24;18.42;;;2.83;;
26512;SDS011;14186;53.822;10.152;2024-01-25T14:04:24;15.82;;;2.40;;
26512;SDS011;14186;53.822;10.152;2024-01-25T14:09:27;14.80;;;2.20;;
26512;SDS011;14186;53.822;10.152;2024-01-25T14:14:27;13.48;;;2.08;;
26512;SDS011;14186;53.822;10.152;2024-01-25T14:19:28;13.68;;;1.90;;
26512;SDS011;14186;53.822;10.152;2024-01-25T14:24:29;10.40;;;1.65;;
26512;SDS011;14186;53.822;10.152;2024-01-25T14:29:29;10.07;;;2.70;;
26512;SDS011;14186;53.822;10.152;2024-01-25T14:34:29;10.32;;;1.58;;
26512;SDS011;14186;53.822;10.152;2024-01-25T14:39:31;13.18;;;1.92;;
26512;SDS011;14186;53.822;10.152;2024-01-25T14:44:31;26.30;;;4.93;;
26512;SDS011;14186;53.822;10.152;2024-01-25T14:49:31;14.57;;;1.80;;
26512;SDS011;14186;53.822;10.152;2024-01-25T14:54:33;14.77;;;2.83;;
26512;SDS011;14186;53.822;10.152;2024-01-25T14:59:33;17.98;;;2.42;;
26512;SDS011;14186;53.822;10.152;2024-01-25T15:04:33;19.65;;;3.15;;
26512;SDS011;14186;53.822;10.152;2024-01-25T15:09:35;17.42;;;3.00;;
26512;SDS011;14186;53.822;10.152;2024-01-25T15:14:35;10.68;;;2.53;;
26512;SDS011;14186;53.822;10.152;2024-01-25T15:19:35;17.33;;;2.60;;
26512;SDS011;14186;53.822;10.152;2024-01-25T15:24:37;16.45;;;3.20;;
26512;SDS011;14186;53.822;10.152;2024-01-25T15:29:37;28.42;;;4.13;;
26512;SDS011;14186;53.822;10.152;2024-01-25T15:34:38;20.45;;;2.47;;
26512;SDS011;14186;53.822;10.152;2024-01-25T15:39:39;11.50;;;2.67;;
26512;SDS011;14186;53.822;10.152;2024-01-25T15:44:39;12.48;;;2.40;;
26512;SDS011;14186;53.822;10.152;2024-01-25T15:49:40;11.93;;;2.00;;
26512;SDS011;14186;53.822;10.152;2024-01-25T15:54:41;12.50;;;1.38;;
26512;SDS011;14186;53.822;10.152;2024-01-25T15:59:41;17.95;;;2.85;;
26512;SDS011;14186;53.822;10.152;2024-01-25T16:04:42;18.83;;;3.80;;
26512;SDS011;14186;53.822;10.152;2024-01-25T16:09:43;14.95;;;4.57;;
26512;SDS011;14186;53.822;10.152;2024-01-25T16:14:44;8.85;;;1.85;;
26512;SDS011;14186;53.822;10.152;2024-01-25T16:19:44;9.75;;;2.05;;
26512;SDS011;14186;53.822;10.152;2024-01-25T16:24:46;10.30;;;2.30;;
26512;SDS011;14186;53.822;10.152;2024-01-25T16:29:46;18.70;;;2.75;;
26512;SDS011;14186;53.822;10.152;2024-01-25T16:34:46;11.68;;;2.10;;
26512;SDS011;14186;53.822;10.152;2024-01-25T16:39:48;19.40;;;2.53;;
26512;SDS011;14186;53.822;10.152;2024-01-25T16:44:48;16.23;;;1.75;;
26512;SDS011;14186;53.822;10.152;2024-01-25T16:49:48;10.20;;;1.90;;
26512;SDS011;14186;53.822;10.152;2024-01-25T16:54:50;17.50;;;2.38;;
26512;SDS011;14186;53.822;10.152;2024-01-25T16:59:50;12.23;;;2.05;;
26512;SDS011;14186;53.822;10.152;2024-01-25T17:04:50;13.27;;;2.40;;
26512;SDS011;14186;53.822;10.152;2024-01-25T17:09:52;13.60;;;2.38;;
26512;SDS011;14186;53.822;10.152;2024-01-25T17:14:52;20.85;;;2.70;;
26512;SDS011;14186;53.822;10.152;2024-01-25T17:19:52;12.65;;;2.90;;
26512;SDS011;14186;53.822;10.152;2024-01-25T17:24:54;15.38;;;3.08;;
26512;SDS011;14186;53.822;10.152;2024-01-25T17:29:54;16.45;;;4.03;;
26512;SDS011;14186;53.822;10.152;2024-01-25T17:34:54;14.23;;;2.42;;
26512;SDS011;14186;53.822;10.152;2024-01-25T17:39:56;22.98;;;3.65;;
26512;SDS011;14186;53.822;10.152;2024-01-25T17:44:56;10.85;;;3.20;;
26512;SDS011;14186;53.822;10.152;2024-01-25T17:49:56;18.00;;;3.13;;
26512;SDS011;14186;53.822;10.152;2024-01-25T17:54:58;16.88;;;2.97;;
26512;SDS011;14186;53.822;10.152;2024-01-25T17:59:58;14.35;;;2.78;;
26512;SDS011;14186;53.822;10.152;2024-01-25T18:04:58;19.27;;;3.75;;
26512;SDS011;14186;53.822;10.152;2024-01-25T18:10:00;12.77;;;2.80;;
26512;SDS011;14186;53.822;10.152;2024-01-25T18:15:00;22.58;;;3.25;;
26512;SDS011;14186;53.822;10.152;2024-01-25T18:20:00;16.75;;;2.85;;
26512;SDS011;14186;53.822;10.152;2024-01-25T18:25:02;18.88;;;3.15;;
26512;SDS011;14186;53.822;10.152;2024-01-25T18:30:02;15.60;;;2.90;;
26512;SDS011;14186;53.822;10.152;2024-01-25T18:35:03;24.30;;;6.35;;
26512;SDS011;14186;53.822;10.152;2024-01-25T18:40:05;14.65;;;2.67;;
26512;SDS011;14186;53.822;10.152;2024-01-25T18:45:06;16.95;;;3.70;;
26512;SDS011;14186;53.822;10.152;2024-01-25T18:50:06;16.83;;;2.92;;
26512;SDS011;14186;53.822;10.152;2024-01-25T18:55:09;17.15;;;4.78;;
26512;SDS011;14186;53.822;10.152;2024-01-25T19:00:09;19.02;;;3.92;;
26512;SDS011;14186;53.822;10.152;2024-01-25T19:05:10;20.05;;;3.13;;
26512;SDS011;14186;53.822;10.152;2024-01-25T19:10:12;8.32;;;2.75;;
26512;SDS011;14186;53.822;10.152;2024-01-25T19:15:12;20.35;;;3.78;;
26512;SDS011;14186;53.822;10.152;2024-01-25T19:20:12;17.83;;;4.90;;
26512;SDS011;14186;53.822;10.152;2024-01-25T19:25:14;18.75;;;4.68;;
26512;SDS011;14186;53.822;10.152;2024-01-25T19:30:14;22.58;;;5.15;;
26512;SDS011;14186;53.822;10.152;2024-01-25T19:35:15;14.18;;;4.07;;
26512;SDS011;14186;53.822;10.152;2024-01-25T19:40:16;15.43;;;3.17;;
26512;SDS011;14186;53.822;10.152;2024-01-25T19:45:16;23.92;;;3.85;;
26512;SDS011;14186;53.822;10.152;2024-01-25T19:50:17;13.48;;;3.78;;
26512;SDS011;14186;53.822;10.152;2024-01-25T19:55:18;14.82;;;3.53;;
26512;SDS011;14186;53.822;10.152;2024-01-25T20:00:19;14.65;;;2.80;;
26512;SDS011;14186;53.822;10.152;2024-01-25T20:05:19;12.65;;;3.30;;
26512;SDS011;14186;53.822;10.152;2024-01-25T20:10:21;19.73;;;3.65;;
26512;SDS011;14186;53.822;10.152;2024-01-25T20:15:21;16.30;;;3.45;;
26512;SDS011;14186;53.822;10.152;2024-01-25T20:20:22;10.57;;;3.28;;
26512;SDS011;14186;53.822;10.152;2024-01-25T20:25:23;12.32;;;2.67;;
26512;SDS011;14186;53.822;10.152;2024-01-25T20:30:23;16.83;;;3.80;;
26512;SDS011;14186;53.822;10.152;2024-01-25T20:35:23;10.82;;;3.70;;
26512;SDS011;14186;53.822;10.152;2024-01-25T20:40:25;15.82;;;3.67;;
26512;SDS011;14186;53.822;10.152;2024-01-25T20:45:25;11.07;;;3.17;;
26512;SDS011;14186;53.822;10.152;2024-01-25T20:50:25;15.32;;;2.92;;
26512;SDS011;14186;53.822;10.152;2024-01-25T20:55:27;18.17;;;4.35;;
26512;SDS011;14186;53.822;10.152;2024-01-25T21:00:27;13.82;;;3.45;;
26512;SDS011;14186;53.822;10.152;2024-01-25T21:05:28;16.95;;;3.85;;
26512;SDS011;14186;53.822;10.152;2024-01-25T21:10:30;16.50;;;4.10;;
26512;SDS011;14186;53.822;10.152;2024-01-25T21:15:30;15.07;;;4.68;;
26512;SDS011;14186;53.822;10.152;2024-01-25T21:20:31;15.82;;;4.95;;
26512;SDS011;14186;53.822;10.152;2024-01-25T21:25:32;19.23;;;5.18;;
26512;SDS011;14186;53.822;10.152;2024-01-25T21:30:33;24.30;;;5.85;;
26512;SDS011;14186;53.822;10.152;2024-01-25T21:35:33;18.73;;;4.70;;
26512;SDS011;14186;53.822;10.152;2024-01-25T21:40:35;18.38;;;4.28;;
26512;SDS011;14186;53.822;10.152;2024-01-25T21:45:35;13.02;;;3.80;;
26512;SDS011;14186;53.822;10.152;2024-01-25T21:50:35;12.88;;;3.83;;
26512;SDS011;14186;53.822;10.152;2024-01-25T21:55:37;17.20;;;4.68;;
26512;SDS011;14186;53.822;10.152;2024-01-25T22:00:37;10.43;;;4.55;;
26512;SDS011;14186;53.822;10.152;2024-01-25T22:05:37;15.85;;;4.35;;
26512;SDS011;14186;53.822;10.152;2024-01-25T22:10:39;11.68;;;4.03;;
26512;SDS011;14186;53.822;10.152;2024-01-25T22:15:39;18.30;;;4.10;;
26512;SDS011;14186;53.822;10.152;2024-01-25T22:20:39;14.05;;;4.00;;
26512;SDS011;14186;53.822;10.152;2024-01-25T22:25:41;25.10;;;4.63;;
26512;SDS011;14186;53.822;10.152;2024-01-25T22:30:41;20.50;;;4.65;;
26512;SDS011;14186;53.822;10.152;2024-01-25T22:35:41;15.27;;;3.50;;
26512;SDS011;14186;53.822;10.152;2024-01-25T22:40:43;18.77;;;3.78;;
26512;SDS011;14186;53.822;10.152;2024-01-25T22:45:43;23.90;;;5.00;;
26512;SDS011;14186;53.822;10.152;2024-01-25T22:50:43;19.38;;;4.65;;
26512;SDS011;14186;53.822;10.152;2024-01-25T22:55:44;21.13;;;4.45;;
26512;SDS011;14186;53.822;10.152;2024-01-25T23:00:45;24.17;;;4.47;;
26512;SDS011;14186;53.822;10.152;2024-01-25T23:05:45;22.58;;;4.50;;
26512;SDS011;14186;53.822;10.152;2024-01-25T23:10:46;23.88;;;4.88;;
26512;SDS011;14186;53.822;10.152;2024-01-25T23:15:47;17.77;;;3.80;;
26512;SDS011;14186;53.822;10.152;2024-01-25T23:20:47;17.20;;;3.75;;
26512;SDS011;14186;53.822;10.152;2024-01-25T23:25:48;24.23;;;4.97;;
26512;SDS011;14186;53.822;10.152;2024-01-25T23:30:49;24.42;;;4.95;;
26512;SDS011;14186;53.822;10.152;2024-01-25T23:35:49;21.02;;;4.07;;
26512;SDS011;14186;53.822;10.152;2024-01-25T23:40:50;23.88;;;5.32;;
26512;SDS011;14186;53.822;10.152;2024-01-25T23:45:51;11.57;;;4.00;;
26512;SDS011;14186;53.822;10.152;2024-01-25T23:50:51;12.80;;;3.95;;
26512;SDS011;14186;53.822;10.152;2024-01-25T23:55:52;24.38;;;5.28;;
